createdAt,value
2018-12-06T00:06:43.000Z,39.273
2018-12-06T00:16:43.000Z,39.25
2018-12-06T00:26:43.000Z,39.408
2018-12-06T00:36:43.000Z,39.459
2018-12-06T00:46:43.000Z,39.564
2018-12-06T00:56:43.000Z,39.64
2018-12-06T01:06:43.000Z,39.667
2018-12-06T01:16:45.000Z,39.696
2018-12-06T01:26:43.000Z,39.932
2018-12-06T01:36:43.000Z,39.876
2018-12-06T01:46:43.000Z,40.056
2018-12-06T01:56:43.000Z,40.01
2018-12-06T02:06:43.000Z,39.954
2018-12-06T02:16:43.000Z,40.027
2018-12-06T02:26:43.000Z,39.874
2018-12-06T02:36:43.000Z,39.731
2018-12-06T02:46:43.000Z,39.847
2018-12-06T02:56:43.000Z,39.9
2018-12-06T03:06:43.000Z,39.833
2018-12-06T03:16:43.000Z,39.906
2018-12-06T03:26:43.000Z,39.763
2018-12-06T03:36:43.000Z,39.806
2018-12-06T03:46:43.000Z,39.868
2018-12-06T03:56:43.000Z,39.639
2018-12-06T04:06:43.000Z,39.724
2018-12-06T04:16:43.000Z,39.882
2018-12-06T04:26:45.000Z,40.247
2018-12-06T04:36:43.000Z,39.771
2018-12-06T04:46:43.000Z,40.156
2018-12-06T04:56:44.000Z,39.875
2018-12-06T05:06:43.000Z,39.97
2018-12-06T05:16:43.000Z,39.883
2018-12-06T05:26:43.000Z,39.539
2018-12-06T05:36:43.000Z,39.386
2018-12-06T05:46:43.000Z,39.213
2018-12-06T05:56:43.000Z,39.146
2018-12-06T06:06:43.000Z,38.985
2018-12-06T06:16:43.000Z,39.038
2018-12-06T06:26:43.000Z,38.962
2018-12-06T06:36:43.000Z,38.67
2018-12-06T06:46:43.000Z,38.692
2018-12-06T06:56:43.000Z,38.455
2018-12-06T07:06:43.000Z,38.466
2018-12-06T07:16:43.000Z,38.27
2018-12-06T07:26:43.000Z,38.035
2018-12-06T07:36:44.000Z,39.821
2018-12-06T07:46:43.000Z,38.77
2018-12-06T07:56:43.000Z,38.53
2018-12-06T08:06:43.000Z,39.922
2018-12-06T08:16:44.000Z,39.188
2018-12-06T08:26:44.000Z,39.232
2018-12-06T08:36:44.000Z,39.289
2018-12-06T08:46:44.000Z,39.204
2018-12-06T08:56:44.000Z,39.28
2018-12-06T09:06:44.000Z,39.082
2018-12-06T09:16:44.000Z,38.975
2018-12-06T09:26:44.000Z,38.923
2018-12-06T09:36:44.000Z,38.871
2018-12-06T09:46:44.000Z,38.763
2018-12-06T09:56:44.000Z,39.499
2018-12-06T10:06:44.000Z,38.701
2018-12-06T10:16:44.000Z,38.54
2018-12-06T10:26:44.000Z,38.637
2018-12-06T10:36:44.000Z,39.132
2018-12-06T10:46:44.000Z,39.26
2018-12-06T10:56:44.000Z,39.435
2018-12-06T11:06:44.000Z,39.199
2018-12-06T11:16:44.000Z,39.07
2018-12-06T11:26:44.000Z,38.533
2018-12-06T11:36:44.000Z,38.608
2018-12-06T11:46:44.000Z,39.255
2018-12-06T11:56:44.000Z,39.582
2018-12-06T12:06:44.000Z,39.603
2018-12-06T12:16:44.000Z,39.497
2018-12-06T12:26:44.000Z,39.552
2018-12-06T12:36:44.000Z,39.509
2018-12-06T12:46:44.000Z,39.423
2018-12-06T12:56:44.000Z,39.542
2018-12-06T13:06:44.000Z,39.481
2018-12-06T13:16:44.000Z,39.195
2018-12-06T13:26:44.000Z,39.456
2018-12-06T13:36:44.000Z,39.585
2018-12-06T13:46:44.000Z,39.747
2018-12-06T13:56:44.000Z,39.659
2018-12-06T14:06:44.000Z,39.217
2018-12-06T14:16:44.000Z,38.775
2018-12-06T14:26:44.000Z,39.126
2018-12-06T14:36:44.000Z,39.089
2018-12-06T14:46:45.000Z,39.936
2018-12-06T14:56:44.000Z,39.732
2018-12-06T15:06:44.000Z,39.139
2018-12-06T15:16:44.000Z,38.933
2018-12-06T15:26:44.000Z,38.812
2018-12-06T15:36:44.000Z,38.877
2018-12-06T15:46:45.000Z,39.35
2018-12-06T15:56:44.000Z,38.573
2018-12-06T16:06:44.000Z,38.712
2018-12-06T16:16:44.000Z,38.526
2018-12-06T16:26:45.000Z,38.565
2018-12-06T16:36:45.000Z,39.567
2018-12-06T16:46:45.000Z,40.125
2018-12-06T16:56:45.000Z,40.369
2018-12-06T17:06:45.000Z,40.355
2018-12-06T17:16:45.000Z,40.294
2018-12-06T17:26:45.000Z,40.437
2018-12-06T17:36:45.000Z,40.632
2018-12-06T17:46:45.000Z,40.428
2018-12-06T17:56:45.000Z,41.027
2018-12-06T18:06:45.000Z,40.857
2018-12-06T18:16:45.000Z,40.783
2018-12-06T18:26:47.000Z,40.903
2018-12-06T18:36:45.000Z,40.925
2018-12-06T18:46:45.000Z,41.055
2018-12-06T18:56:45.000Z,41.13
2018-12-06T19:06:45.000Z,41.379
2018-12-06T19:16:48.000Z,41.098
2018-12-06T19:26:45.000Z,41.131
2018-12-06T19:36:45.000Z,41.317
2018-12-06T19:46:45.000Z,41.37
2018-12-06T19:56:45.000Z,41.24
2018-12-06T20:06:45.000Z,40.928
2018-12-06T20:16:45.000Z,41.422
2018-12-06T20:26:45.000Z,41.227
2018-12-06T20:36:47.000Z,41.442
2018-12-06T20:46:45.000Z,41.495
2018-12-06T20:56:45.000Z,41.397
2018-12-06T21:06:45.000Z,41.286
2018-12-06T21:16:45.000Z,41.449
2018-12-06T21:26:45.000Z,41.234
2018-12-06T21:36:46.000Z,41.233
2018-12-06T21:46:45.000Z,41.297
2018-12-06T21:56:45.000Z,41.339
2018-12-06T22:06:45.000Z,41.145
2018-12-06T22:16:45.000Z,41.125
2018-12-06T22:26:45.000Z,41.285
2018-12-06T22:36:45.000Z,41.294
2018-12-06T22:46:45.000Z,41.369
2018-12-06T22:56:45.000Z,41.497
2018-12-06T23:06:46.000Z,42.131
2018-12-06T23:16:45.000Z,42.131
2018-12-06T23:26:45.000Z,42.225
2018-12-06T23:36:45.000Z,41.729
2018-12-06T23:46:45.000Z,41.868
2018-12-06T23:56:45.000Z,42.075
